createdAt,value
2018-09-06T00:01:44.290Z,71.66
2018-09-06T00:04:12.798Z,70.90
2018-09-06T00:06:41.299Z,70.71
2018-09-06T00:09:10.327Z,70.85
2018-09-06T00:11:38.870Z,71.02
2018-09-06T00:14:07.359Z,71.26
2018-09-06T00:16:42.499Z,72.00
2018-09-06T00:19:10.986Z,71.64
2018-09-06T00:21:39.521Z,71.37
2018-09-06T00:24:08.014Z,72.06
2018-09-06T00:26:36.522Z,72.11
2018-09-06T00:29:05.011Z,71.92
2018-09-06T00:31:33.938Z,72.01
2018-09-06T00:34:02.458Z,72.78
2018-09-06T00:36:30.967Z,72.29
2018-09-06T00:38:59.498Z,72.04
2018-09-06T00:41:28.029Z,72.26
2018-09-06T00:43:56.658Z,72.31
2018-09-06T00:46:25.123Z,71.56
2018-09-06T00:48:53.601Z,72.34
2018-09-06T00:51:22.112Z,73.21
2018-09-06T00:53:50.610Z,73.11
2018-09-06T00:56:19.138Z,73.45
2018-09-06T00:58:47.680Z,72.80
2018-09-06T01:01:16.206Z,72.25
2018-09-06T01:03:44.701Z,73.45
2018-09-06T01:06:13.203Z,73.80
2018-09-06T01:08:41.860Z,73.77
2018-09-06T01:11:10.554Z,74.37
2018-09-06T01:13:39.118Z,75.03
2018-09-06T01:16:07.925Z,74.77
2018-09-06T01:18:36.598Z,74.61
2018-09-06T01:21:05.261Z,74.43
2018-09-06T01:23:33.828Z,73.97
2018-09-06T01:26:02.477Z,73.21
2018-09-06T01:28:31.001Z,73.47
2018-09-06T01:30:59.568Z,72.77
2018-09-06T01:33:28.215Z,72.44
2018-09-06T01:36:01.821Z,73.07
2018-09-06T01:38:30.349Z,72.96
2018-09-06T01:40:58.912Z,72.98
2018-09-06T01:43:27.449Z,71.48
2018-09-06T01:45:55.945Z,72.51
2018-09-06T01:48:24.473Z,72.55
2018-09-06T01:50:53.030Z,72.39
2018-09-06T01:53:21.929Z,73.40
2018-09-06T01:55:50.431Z,73.31
2018-09-06T01:58:18.902Z,74.32
2018-09-06T02:00:47.393Z,74.64
2018-09-06T02:03:15.861Z,74.55
2018-09-06T02:05:44.688Z,74.47
2018-09-06T02:08:13.304Z,73.81
2018-09-06T02:10:41.802Z,74.25
2018-09-06T02:13:10.324Z,74.99
2018-09-06T02:15:38.878Z,75.96
2018-09-06T02:18:07.397Z,77.06
2018-09-06T02:20:35.848Z,77.47
2018-09-06T02:23:04.320Z,77.74
2018-09-06T02:25:32.857Z,78.08
2018-09-06T02:28:01.361Z,79.05
2018-09-06T02:30:29.845Z,79.23
2018-09-06T02:32:58.309Z,78.75
2018-09-06T02:35:26.819Z,78.21
2018-09-06T02:37:55.374Z,79.04
2018-09-06T02:40:29.206Z,80.61
2018-09-06T02:42:57.690Z,81.02
2018-09-06T02:45:26.163Z,80.90
2018-09-06T02:47:55.754Z,80.93
2018-09-06T02:50:29.607Z,80.44
2018-09-06T02:52:58.386Z,80.70
2018-09-06T02:55:28.365Z,81.03
2018-09-06T02:57:57.254Z,81.74
2018-09-06T03:00:29.128Z,82.03
2018-09-06T03:02:57.621Z,80.95
2018-09-06T03:05:26.772Z,81.38
2018-09-06T03:07:56.529Z,82.30
2018-09-06T03:10:26.260Z,81.83
2018-09-06T03:12:54.764Z,82.36
2018-09-06T03:15:23.464Z,82.68
2018-09-06T03:17:51.945Z,82.29
2018-09-06T03:20:20.410Z,82.93
2018-09-06T03:22:48.948Z,82.82
2018-09-06T03:25:17.442Z,82.55
2018-09-06T03:27:45.952Z,81.72
2018-09-06T03:30:14.519Z,81.32
2018-09-06T03:32:43.011Z,81.34
2018-09-06T03:35:11.517Z,81.75
2018-09-06T03:37:40.153Z,82.19
2018-09-06T03:40:08.649Z,81.71
2018-09-06T03:42:37.152Z,82.13
2018-09-06T03:45:05.675Z,81.47
2018-09-06T03:47:34.214Z,82.26
2018-09-06T03:50:02.714Z,81.87
2018-09-06T03:52:31.218Z,82.00
2018-09-06T03:54:59.823Z,82.34
2018-09-06T03:57:28.352Z,82.06
2018-09-06T03:59:57.288Z,82.28
2018-09-06T04:02:25.790Z,82.32
2018-09-06T04:04:54.297Z,82.08
2018-09-06T04:07:22.867Z,81.82
2018-09-06T04:09:51.422Z,82.00
2018-09-06T04:12:19.910Z,81.43
2018-09-06T04:14:48.441Z,81.62
2018-09-06T04:17:16.996Z,81.37
2018-09-06T04:19:45.535Z,81.30
2018-09-06T04:22:14.043Z,80.64
2018-09-06T04:24:42.518Z,80.43
2018-09-06T04:27:11.086Z,80.75
2018-09-06T04:29:39.608Z,80.07
2018-09-06T04:32:08.206Z,80.08
2018-09-06T04:34:36.750Z,80.01
2018-09-06T04:37:05.607Z,80.49
2018-09-06T04:39:34.171Z,79.87
2018-09-06T04:42:02.693Z,79.75
2018-09-06T04:44:31.304Z,80.07
2018-09-06T04:46:59.761Z,80.07
2018-09-06T04:49:28.238Z,80.37
2018-09-06T04:51:56.767Z,79.87
2018-09-06T04:54:25.347Z,79.05
2018-09-06T04:56:53.867Z,79.67
2018-09-06T04:59:22.342Z,79.31
2018-09-06T05:01:50.855Z,79.74
2018-09-06T05:04:19.403Z,79.24
2018-09-06T05:06:48.890Z,79.35
2018-09-06T05:09:17.381Z,78.90
2018-09-06T05:11:45.921Z,79.27
2018-09-06T05:14:14.485Z,78.87
2018-09-06T05:16:43.031Z,78.73
2018-09-06T05:19:11.526Z,79.05
2018-09-06T05:21:40.061Z,78.87
2018-09-06T05:24:08.608Z,78.47
2018-09-06T05:26:37.155Z,78.08
2018-09-06T05:29:05.790Z,76.11
2018-09-06T05:31:34.316Z,74.98
2018-09-06T05:34:02.849Z,75.83
2018-09-06T05:36:31.457Z,75.39
2018-09-06T05:39:00.071Z,75.32
2018-09-06T05:41:28.608Z,74.92
2018-09-06T05:43:57.148Z,73.53
2018-09-06T05:46:25.765Z,73.41
2018-09-06T05:48:54.363Z,74.70
2018-09-06T05:51:22.881Z,73.24
2018-09-06T05:53:51.402Z,72.45
2018-09-06T05:56:19.919Z,71.53
2018-09-06T05:58:48.452Z,70.51
2018-09-06T06:01:17.339Z,71.03
2018-09-06T06:03:45.963Z,71.53
2018-09-06T06:06:14.846Z,69.24
2018-09-06T06:08:49.329Z,68.52
2018-09-06T06:11:18.554Z,69.10
2018-09-06T06:13:47.080Z,69.84
2018-09-06T06:16:15.606Z,69.23
2018-09-06T06:18:44.226Z,69.18
2018-09-06T06:21:12.931Z,68.35
2018-09-06T06:23:41.502Z,69.65
2018-09-06T06:26:10.091Z,70.04
2018-09-06T06:28:38.624Z,70.64
2018-09-06T06:31:07.183Z,72.89
2018-09-06T06:33:36.301Z,72.53
2018-09-06T06:36:04.860Z,70.74
2018-09-06T06:38:33.434Z,71.25
2018-09-06T06:41:01.959Z,71.61
2018-09-06T06:43:30.550Z,72.87
2018-09-06T06:45:59.090Z,72.53
2018-09-06T06:48:27.627Z,73.37
2018-09-06T06:50:56.177Z,74.89
2018-09-06T06:53:24.729Z,76.00
2018-09-06T06:55:53.577Z,76.46
2018-09-06T06:58:22.083Z,76.40
2018-09-06T07:00:50.634Z,75.99
2018-09-06T07:03:19.155Z,76.53
2018-09-06T07:05:47.642Z,77.17
2018-09-06T07:08:16.431Z,77.55
2018-09-06T07:10:44.921Z,78.19
2018-09-06T07:13:13.462Z,78.55
2018-09-06T07:15:42.086Z,78.85
2018-09-06T07:18:10.726Z,79.05
2018-09-06T07:20:39.222Z,79.08
2018-09-06T07:23:07.733Z,79.24
2018-09-06T07:25:36.231Z,79.27
2018-09-06T07:28:04.729Z,80.18
2018-09-06T07:30:33.216Z,79.61
2018-09-06T07:33:01.737Z,80.38
2018-09-06T07:35:30.220Z,79.74
2018-09-06T07:37:59.101Z,80.37
2018-09-06T07:40:27.655Z,80.19
2018-09-06T07:42:56.175Z,81.26
2018-09-06T07:45:24.705Z,81.79
2018-09-06T07:47:53.674Z,81.43
2018-09-06T07:50:22.985Z,81.17
2018-09-06T07:52:51.552Z,81.91
2018-09-06T07:55:21.619Z,81.74
2018-09-06T07:57:50.222Z,80.83
2018-09-06T08:00:18.771Z,80.97
2018-09-06T08:02:47.293Z,80.31
2018-09-06T08:05:15.820Z,77.86
2018-09-06T08:07:44.833Z,78.44
2018-09-06T08:10:16.322Z,78.31
2018-09-06T08:12:45.576Z,78.79
2018-09-06T08:15:15.802Z,78.27
2018-09-06T08:17:46.040Z,79.13
2018-09-06T08:20:14.779Z,80.37
2018-09-06T08:22:43.433Z,80.26
2018-09-06T08:25:11.966Z,80.31
2018-09-06T08:27:40.573Z,80.60
2018-09-06T08:30:09.426Z,81.11
2018-09-06T08:32:37.918Z,81.69
2018-09-06T08:35:06.457Z,82.52
2018-09-06T08:37:35.031Z,82.89
2018-09-06T08:40:03.570Z,83.35
2018-09-06T08:42:33.043Z,83.16
2018-09-06T08:45:01.591Z,83.18
2018-09-06T08:47:30.153Z,82.14
2018-09-06T08:49:58.673Z,82.14
2018-09-06T08:52:27.378Z,82.92
2018-09-06T08:54:56.264Z,82.27
2018-09-06T08:57:24.807Z,79.45
2018-09-06T08:59:53.334Z,77.88
2018-09-06T09:02:21.954Z,78.88
2018-09-06T09:04:50.431Z,78.05
2018-09-06T09:07:19.021Z,79.56
2018-09-06T09:09:47.628Z,78.87
2018-09-06T09:12:22.938Z,76.98
2018-09-06T09:14:51.433Z,77.16
2018-09-06T09:17:22.752Z,77.88
2018-09-06T09:19:53.071Z,76.20
2018-09-06T09:22:22.095Z,75.33
2018-09-06T09:24:50.600Z,74.52
2018-09-06T09:27:19.141Z,74.58
2018-09-06T09:29:47.647Z,72.88
2018-09-06T09:32:16.234Z,72.98
2018-09-06T09:34:45.197Z,73.03
2018-09-06T09:37:13.805Z,72.82
2018-09-06T09:39:42.836Z,73.03
2018-09-06T09:42:12.034Z,74.28
2018-09-06T09:44:41.002Z,73.48
2018-09-06T09:49:37.526Z,74.28
2018-09-06T09:52:06.081Z,74.84
2018-09-06T09:54:34.614Z,73.87
2018-09-06T09:57:03.318Z,75.59
2018-09-06T09:59:32.753Z,75.28
2018-09-06T10:02:06.630Z,74.50
2018-09-06T10:05:38.743Z,73.78
2018-09-06T10:08:13.970Z,74.89
2018-09-06T10:10:42.657Z,73.61
2018-09-06T10:13:12.248Z,75.88
2018-09-06T10:15:41.362Z,76.33
2018-09-06T10:18:10.439Z,76.79
2018-09-06T10:20:39.292Z,76.91
2018-09-06T10:23:08.034Z,76.67
2018-09-06T10:25:36.593Z,76.05
2018-09-06T10:28:05.227Z,77.42
2018-09-06T10:30:33.778Z,77.27
2018-09-06T10:33:02.625Z,76.40
2018-09-06T10:35:31.226Z,76.26
2018-09-06T10:37:59.682Z,73.98
2018-09-06T10:40:28.254Z,71.66
2018-09-06T10:42:56.753Z,70.21
2018-09-06T10:45:25.734Z,71.60
2018-09-06T10:47:54.317Z,69.56
2018-09-06T10:50:22.825Z,70.94
2018-09-06T10:52:51.289Z,71.03
2018-09-06T10:55:19.802Z,70.93
2018-09-06T10:57:48.356Z,71.18
2018-09-06T11:00:16.926Z,71.71
2018-09-06T11:02:45.737Z,70.39
2018-09-06T11:05:14.290Z,71.14
2018-09-06T11:07:42.851Z,69.77
2018-09-06T11:10:12.115Z,69.00
2018-09-06T11:12:40.658Z,67.34
2018-09-06T11:15:09.256Z,65.26
2018-09-06T11:17:37.738Z,64.79
2018-09-06T11:20:06.419Z,63.41
2018-09-06T11:22:35.208Z,62.28
2018-09-06T11:25:03.429Z,64.37
2018-09-06T11:27:31.998Z,65.46
2018-09-06T11:30:00.509Z,67.17
2018-09-06T11:32:29.170Z,67.48
2018-09-06T11:34:57.738Z,67.27
2018-09-06T11:37:26.235Z,68.23
2018-09-06T11:39:55.161Z,68.08
2018-09-06T11:42:23.700Z,68.94
2018-09-06T11:44:52.201Z,71.30
2018-09-06T11:47:20.811Z,69.84
2018-09-06T11:49:49.294Z,71.36
2018-09-06T11:52:17.933Z,70.12
2018-09-06T11:54:46.482Z,68.48
2018-09-06T11:57:15.034Z,68.30
2018-09-06T11:59:43.579Z,66.94
2018-09-06T12:02:12.221Z,66.98
2018-09-06T12:04:40.714Z,66.83
2018-09-06T12:07:09.233Z,67.83
2018-09-06T12:09:37.819Z,67.88
2018-09-06T12:12:06.932Z,68.49
2018-09-06T12:14:35.539Z,69.32
2018-09-06T12:17:04.094Z,68.36
2018-09-06T12:19:32.676Z,68.05
2018-09-06T12:22:01.783Z,67.16
2018-09-06T12:24:30.357Z,68.10
2018-09-06T12:26:58.916Z,67.15
2018-09-06T12:29:27.689Z,68.39
2018-09-06T12:31:56.310Z,68.02
2018-09-06T12:34:24.836Z,68.78
2018-09-06T12:36:53.372Z,68.99
2018-09-06T12:39:21.945Z,68.57
2018-09-06T12:41:50.550Z,66.74
2018-09-06T12:44:19.042Z,67.08
2018-09-06T12:46:47.595Z,68.72
2018-09-06T12:49:16.738Z,67.54
2018-09-06T12:51:45.331Z,68.49
2018-09-06T12:54:13.846Z,69.14
2018-09-06T12:56:42.446Z,68.05
2018-09-06T12:59:10.933Z,68.57
2018-09-06T13:01:39.472Z,68.69
2018-09-06T13:04:07.975Z,67.55
2018-09-06T13:06:36.460Z,65.95
2018-09-06T13:09:06.223Z,66.16
2018-09-06T13:11:35.019Z,65.45
2018-09-06T13:14:03.606Z,64.43
2018-09-06T13:16:32.163Z,66.00
2018-09-06T13:19:00.835Z,64.43
2018-09-06T13:21:29.463Z,63.94
2018-09-06T13:23:58.004Z,64.08
2018-09-06T13:26:26.505Z,62.62
2018-09-06T13:28:55.058Z,62.84
2018-09-06T13:31:24.370Z,63.30
2018-09-06T13:33:52.874Z,61.76
2018-09-06T13:36:21.439Z,62.04
2018-09-06T13:38:50.330Z,62.72
2018-09-06T13:41:18.862Z,62.44
2018-09-06T13:43:47.399Z,61.53
2018-09-06T13:46:15.982Z,62.76
2018-09-06T13:48:44.669Z,63.23
2018-09-06T13:51:13.286Z,62.90
2018-09-06T13:53:41.831Z,62.27
2018-09-06T13:56:10.462Z,61.67
2018-09-06T13:58:39.104Z,62.91
2018-09-06T14:01:07.979Z,61.40
2018-09-06T14:03:36.461Z,60.93
2018-09-06T14:06:04.983Z,61.02
2018-09-06T14:08:33.469Z,60.59
2018-09-06T14:11:02.005Z,60.51
2018-09-06T14:13:30.509Z,60.16
2018-09-06T14:15:59.122Z,61.44
2018-09-06T14:18:27.930Z,59.57
2018-09-06T14:20:56.491Z,59.25
2018-09-06T14:23:25.017Z,60.56
2018-09-06T14:25:53.574Z,60.22
2018-09-06T14:28:22.064Z,62.20
2018-09-06T14:30:50.629Z,60.25
2018-09-06T14:33:19.150Z,62.36
2018-09-06T14:35:47.661Z,62.23
2018-09-06T14:38:16.349Z,62.15
2018-09-06T14:40:44.809Z,62.69
2018-09-06T14:43:13.354Z,63.24
2018-09-06T14:45:41.868Z,63.84
2018-09-06T14:48:10.415Z,62.33
2018-09-06T14:50:38.942Z,63.03
2018-09-06T14:53:07.504Z,63.05
2018-09-06T14:55:36.111Z,61.71
2018-09-06T15:00:32.229Z,63.01
2018-09-06T15:03:00.806Z,61.65
2018-09-06T15:05:29.330Z,58.52
2018-09-06T15:07:57.852Z,60.29
2018-09-06T15:10:26.398Z,60.30
2018-09-06T15:12:54.899Z,60.30
2018-09-06T15:15:23.453Z,60.24
2018-09-06T15:17:52.042Z,60.80
2018-09-06T15:20:20.798Z,62.79
2018-09-06T15:22:49.309Z,62.33
2018-09-06T15:25:17.854Z,60.78
2018-09-06T15:27:46.772Z,61.94
2018-09-06T15:30:15.303Z,61.84
2018-09-06T15:32:43.837Z,63.69
2018-09-06T15:35:12.344Z,64.75
2018-09-06T15:37:40.901Z,65.75
2018-09-06T15:40:09.445Z,67.55
2018-09-06T15:42:37.962Z,68.59
2018-09-06T15:45:06.463Z,68.81
2018-09-06T15:47:35.010Z,69.04
2018-09-06T15:50:03.552Z,68.47
2018-09-06T15:52:32.102Z,69.74
2018-09-06T15:55:00.605Z,70.36
2018-09-06T15:57:29.112Z,71.27
2018-09-06T15:59:57.651Z,70.85
2018-09-06T16:02:26.130Z,71.23
2018-09-06T16:04:54.625Z,71.37
2018-09-06T16:07:25.293Z,74.84
2018-09-06T16:09:53.809Z,76.27
2018-09-06T16:12:22.782Z,74.65
2018-09-06T16:14:51.242Z,74.24
2018-09-06T16:17:21.536Z,75.71
2018-09-06T16:19:50.117Z,76.71
2018-09-06T16:22:19.066Z,76.16
2018-09-06T16:24:47.604Z,76.50
2018-09-06T16:27:16.159Z,74.41
2018-09-06T16:29:44.763Z,74.51
2018-09-06T16:32:13.284Z,73.67
2018-09-06T16:34:41.951Z,70.88
2018-09-06T16:37:10.566Z,72.47
2018-09-06T16:39:39.034Z,71.22
2018-09-06T16:42:11.656Z,71.64
2018-09-06T16:44:40.538Z,69.40
2018-09-06T16:47:09.035Z,72.30
2018-09-06T16:49:37.570Z,71.31
2018-09-06T16:52:06.170Z,73.03
2018-09-06T16:54:36.305Z,72.40
2018-09-06T16:57:05.365Z,71.72
2018-09-06T16:59:33.882Z,74.00
2018-09-06T17:02:02.389Z,73.99
2018-09-06T17:04:30.995Z,74.72
2018-09-06T17:07:00.067Z,74.69
2018-09-06T17:09:28.503Z,75.66
2018-09-06T17:11:57.185Z,76.86
2018-09-06T17:14:25.746Z,78.17
2018-09-06T17:16:54.448Z,77.95
2018-09-06T17:19:23.039Z,77.44
2018-09-06T17:21:51.662Z,77.76
2018-09-06T17:24:20.185Z,78.96
2018-09-06T17:26:48.863Z,79.21
2018-09-06T17:29:17.540Z,79.30
2018-09-06T17:31:46.083Z,80.09
2018-09-06T17:34:14.813Z,80.47
2018-09-06T17:36:43.942Z,81.05
2018-09-06T17:39:13.616Z,79.63
2018-09-06T17:41:42.034Z,79.64
2018-09-06T17:44:13.365Z,79.79
2018-09-06T17:46:42.393Z,79.64
2018-09-06T17:49:11.177Z,80.61
2018-09-06T17:51:40.094Z,81.89
2018-09-06T17:54:08.715Z,81.93
2018-09-06T17:56:37.309Z,80.52
2018-09-06T17:59:06.043Z,81.66
2018-09-06T18:01:37.379Z,81.87
2018-09-06T18:04:06.268Z,82.39
2018-09-06T18:06:34.774Z,83.22
2018-09-06T18:09:05.187Z,83.12
2018-09-06T18:11:33.792Z,82.97
2018-09-06T18:14:02.330Z,83.17
2018-09-06T18:16:30.811Z,83.38
2018-09-06T18:18:59.517Z,84.19
2018-09-06T18:21:28.101Z,84.15
2018-09-06T18:23:57.359Z,84.18
2018-09-06T18:26:32.625Z,84.45
2018-09-06T18:29:01.245Z,85.50
2018-09-06T18:31:30.008Z,84.71
2018-09-06T18:33:58.518Z,85.42
2018-09-06T18:36:27.191Z,84.85
2018-09-06T18:38:55.853Z,84.82
2018-09-06T18:41:24.439Z,84.40
2018-09-06T18:43:52.985Z,84.58
2018-09-06T18:46:21.505Z,84.06
2018-09-06T18:48:50.033Z,84.22
2018-09-06T18:51:18.571Z,84.49
2018-09-06T18:53:47.226Z,84.93
2018-09-06T18:56:15.926Z,84.99
2018-09-06T18:58:44.562Z,85.15
2018-09-06T19:01:13.130Z,84.81
2018-09-06T19:03:42.095Z,85.41
2018-09-06T19:06:10.617Z,84.55
2018-09-06T19:08:39.230Z,85.07
2018-09-06T19:11:07.918Z,86.34
2018-09-06T19:13:36.404Z,86.05
2018-09-06T19:16:04.944Z,86.68
2018-09-06T19:18:33.528Z,85.78
2018-09-06T19:21:02.271Z,86.80
2018-09-06T19:23:30.836Z,86.71
2018-09-06T19:25:59.590Z,87.25
2018-09-06T19:28:28.663Z,86.60
2018-09-06T19:30:57.145Z,86.26
2018-09-06T19:33:25.642Z,86.58
2018-09-06T19:35:54.211Z,86.47
2018-09-06T19:38:22.726Z,87.52
2018-09-06T19:40:51.246Z,87.33
2018-09-06T19:43:19.860Z,87.71
2018-09-06T19:45:48.811Z,86.89
2018-09-06T19:48:17.305Z,87.64
2018-09-06T19:50:46.432Z,87.64
2018-09-06T19:53:14.970Z,87.94
2018-09-06T19:55:43.484Z,87.67
2018-09-06T19:58:12.099Z,87.26
2018-09-06T20:00:40.702Z,87.61
2018-09-06T20:03:09.266Z,88.10
2018-09-06T20:05:37.770Z,88.22
2018-09-06T20:08:06.662Z,88.33
2018-09-06T20:13:09.932Z,88.54
2018-09-06T20:15:38.585Z,88.22
2018-09-06T20:18:07.117Z,88.07
2018-09-06T20:20:35.618Z,88.28
2018-09-06T20:23:04.130Z,88.88
2018-09-06T20:25:32.662Z,87.90
2018-09-06T20:28:01.196Z,88.71
2018-09-06T20:30:29.640Z,88.24
2018-09-06T20:32:58.994Z,88.16
2018-09-06T20:35:27.517Z,88.06
2018-09-06T20:37:56.042Z,88.67
2018-09-06T20:40:24.966Z,89.44
2018-09-06T20:42:53.632Z,89.04
2018-09-06T20:45:22.113Z,89.43
2018-09-06T20:47:50.710Z,89.71
2018-09-06T20:50:19.303Z,89.77
2018-09-06T20:52:47.906Z,89.69
2018-09-06T20:55:16.408Z,89.49
2018-09-06T20:57:44.980Z,89.07
2018-09-06T21:00:13.458Z,89.17
2018-09-06T21:02:41.947Z,89.48
2018-09-06T21:05:10.509Z,88.78
2018-09-06T21:07:39.161Z,89.46
2018-09-06T21:10:07.688Z,89.53
2018-09-06T21:12:36.131Z,89.80
2018-09-06T21:15:04.652Z,89.15
2018-09-06T21:17:33.238Z,90.03
2018-09-06T21:20:01.746Z,89.41
2018-09-06T21:22:30.244Z,89.13
2018-09-06T21:24:58.729Z,89.46
2018-09-06T21:27:27.387Z,89.51
2018-09-06T21:29:56.052Z,88.95
2018-09-06T21:32:24.636Z,89.47
2018-09-06T21:34:53.205Z,88.87
2018-09-06T21:37:21.675Z,89.25
2018-09-06T21:39:50.226Z,88.64
2018-09-06T21:42:18.704Z,89.04
2018-09-06T21:44:47.351Z,88.93
2018-09-06T21:47:15.930Z,88.78
2018-09-06T21:49:44.465Z,88.86
2018-09-06T21:52:13.061Z,89.08
2018-09-06T21:54:41.613Z,88.53
2018-09-06T21:57:10.137Z,88.96
2018-09-06T21:59:38.636Z,88.36
2018-09-06T22:02:07.240Z,89.21
2018-09-06T22:04:35.875Z,87.95
2018-09-06T22:07:04.353Z,87.69
2018-09-06T22:09:32.871Z,87.93
2018-09-06T22:12:01.362Z,87.40
2018-09-06T22:14:29.956Z,88.35
2018-09-06T22:16:58.497Z,88.47
2018-09-06T22:19:27.044Z,89.27
2018-09-06T22:21:55.570Z,88.99
2018-09-06T22:24:24.174Z,89.53
2018-09-06T22:26:52.687Z,89.63
2018-09-06T22:29:21.211Z,89.30
2018-09-06T22:31:50.344Z,90.26
2018-09-06T22:34:18.884Z,89.70
2018-09-06T22:36:47.382Z,91.21
2018-09-06T22:39:15.902Z,90.87
2018-09-06T22:41:44.440Z,91.26
2018-09-06T22:44:12.994Z,91.39
2018-09-06T22:46:41.535Z,90.63
2018-09-06T22:49:10.041Z,91.34
2018-09-06T22:51:38.621Z,91.84
2018-09-06T22:54:07.160Z,92.74
2018-09-06T22:56:36.266Z,92.08
2018-09-06T22:59:05.220Z,92.10
2018-09-06T23:01:33.797Z,92.10
2018-09-06T23:04:02.375Z,92.58
2018-09-06T23:06:31.048Z,92.41
2018-09-06T23:08:59.624Z,92.36
2018-09-06T23:11:28.581Z,92.25
2018-09-06T23:13:57.093Z,92.33
2018-09-06T23:16:25.711Z,92.64
2018-09-06T23:18:55.835Z,92.77
2018-09-06T23:21:24.341Z,93.13
2018-09-06T23:23:52.814Z,92.53
2018-09-06T23:26:21.702Z,92.51
2018-09-06T23:28:50.202Z,92.64
2018-09-06T23:31:18.826Z,92.47
2018-09-06T23:33:47.361Z,92.76
2018-09-06T23:36:15.859Z,92.81
2018-09-06T23:38:44.350Z,92.30
2018-09-06T23:41:12.938Z,92.75
2018-09-06T23:43:41.527Z,92.64
2018-09-06T23:46:10.065Z,92.31
2018-09-06T23:48:38.709Z,92.33
2018-09-06T23:51:07.536Z,91.92
2018-09-06T23:53:36.042Z,92.03
2018-09-06T23:56:04.554Z,91.24
2018-09-06T23:58:33.077Z,91.49
